Time;durP1;ratioP1;P1;durP2;ratioP2;P2;SDS_P1;SDS_P2;PMS_P1;PMS_P2;Temp;Humidity;BMP_temperature;BMP_pressure;BME280_temperature;BME280_humidity;BME280_pressure;Samples;Min_cycle;Max_cycle;Signal;HPM_P1;HPM_P2
2021/07/14 00:00:23;;;;;;;12.70;10.97;;;;;;;19.20;100.00;100296.38;5083082;28;20197;-71
2021/07/14 00:02:49;;;;;;;14.93;12.07;;;;;;;19.11;100.00;100300.84;5082073;28;20179;-73
2021/07/14 00:05:16;;;;;;;15.27;11.23;;;;;;;19.09;100.00;100302.00;5062890;28;20199;-73
2021/07/14 00:07:42;;;;;;;12.97;11.57;;;;;;;19.20;100.00;100297.25;5057186;28;20179;-73
2021/07/14 00:10:20;;;;;;;13.47;10.87;;;;;;;19.29;100.00;100292.78;5071681;28;20203;-73
2021/07/14 00:12:57;;;;;;;13.90;11.07;;;;;;;19.26;100.00;100298.50;5071425;28;20179;-73
2021/07/14 00:23:22;;;;;;;13.90;11.97;;;;;;;19.44;100.00;100268.78;5071740;28;20163;-73
2021/07/14 00:25:47;;;;;;;15.70;11.80;;;;;;;19.56;100.00;100254.06;5071326;28;20195;-73
2021/07/14 00:28:15;;;;;;;16.93;11.70;;;;;;;19.65;100.00;100240.47;5071214;28;20175;-73
2021/07/14 00:30:42;;;;;;;14.40;11.23;;;;;;;19.73;99.98;100247.84;5071382;28;20655;-73
2021/07/14 00:33:07;;;;;;;11.73;10.57;;;;;;;19.84;99.80;100238.63;5072579;28;20726;-74
2021/07/14 00:35:33;;;;;;;13.50;11.20;;;;;;;19.86;99.19;100242.88;5071864;28;20248;-73
2021/07/14 00:37:59;;;;;;;14.03;10.90;;;;;;;19.95;99.10;100230.25;5072483;28;20179;-73
2021/07/14 00:40:25;;;;;;;16.17;11.27;;;;;;;20.04;98.64;100223.88;5072418;28;20665;-73
2021/07/14 00:42:50;;;;;;;12.63;11.10;;;;;;;20.13;98.12;100217.56;5071311;28;20210;-70
2021/07/14 00:45:15;;;;;;;13.27;11.10;;;;;;;20.33;96.45;100192.97;5072606;28;20674;-70
2021/07/14 00:47:47;;;;;;;17.30;11.53;;;;;;;20.52;94.17;100152.97;5072702;28;20643;-70
2021/07/14 00:50:12;;;;;;;15.17;11.23;;;;;;;20.58;93.36;100159.59;5055589;28;20297;-70
2021/07/14 00:52:38;;;;;;;11.63;9.90;;;;;;;20.75;91.03;100161.38;5072779;28;20506;-69
2021/07/14 00:55:04;;;;;;;10.97;9.87;;;;;;;20.76;89.98;100170.34;5071263;28;20674;-70
2021/07/14 00:57:31;;;;;;;11.60;9.90;;;;;;;20.71;90.22;100176.28;5071127;28;20279;-70
2021/07/14 00:59:56;;;;;;;11.00;9.50;;;;;;;20.65;91.64;100179.63;5074756;28;20171;-70
2021/07/14 01:02:22;;;;;;;13.03;9.17;;;;;;;20.64;91.72;100174.38;5074716;28;20554;-69
2021/07/14 01:04:51;;;;;;;12.87;8.90;;;;;;;20.63;91.95;100165.41;5074458;28;20207;-69
2021/07/14 01:07:23;;;;;;;13.17;9.83;;;;;;;20.66;91.69;100137.94;5057776;28;20171;-69
2021/07/14 01:10:07;;;;;;;13.50;9.33;;;;;;;20.74;90.75;100132.56;5057684;28;20631;-70
2021/07/14 01:12:50;;;;;;;12.27;9.10;;;;;;;20.75;90.82;100126.13;5074423;28;20182;-70
2021/07/14 01:15:17;;;;;;;10.83;9.73;;;;;;;20.78;90.63;100120.38;5057957;28;20171;-69
2021/07/14 01:17:58;;;;;;;10.50;9.40;;;;;;;20.80;90.83;100114.78;5074231;28;20175;-69
2021/07/14 01:20:29;;;;;;;12.13;9.93;;;;;;;20.78;90.72;100128.50;5057461;28;20198;-69
2021/07/14 01:23:11;;;;;;;11.80;10.23;;;;;;;20.60;92.09;100144.88;5074064;28;20631;-69
2021/07/14 01:25:53;;;;;;;13.27;9.17;;;;;;;20.29;92.70;100160.75;5074122;28;20205;-70
2021/07/14 01:28:21;;;;;;;10.73;9.60;;;;;;;20.09;93.33;100166.56;5057543;28;20692;-69
2021/07/14 01:30:50;;;;;;;10.57;9.30;;;;;;;20.10;94.10;100168.25;5075273;28;20623;-70
2021/07/14 01:33:25;;;;;;;12.20;10.90;;;;;;;20.02;94.67;100157.34;5074210;28;20186;-69
2021/07/14 01:35:52;;;;;;;13.47;11.33;;;;;;;19.94;95.92;100148.16;5057992;28;20173;-70
2021/07/14 01:38:24;;;;;;;13.63;11.47;;;;;;;20.13;94.94;100139.00;5075204;28;20175;-69
2021/07/14 01:40:50;;;;;;;13.97;10.53;;;;;;;20.27;94.02;100138.41;5057554;28;20194;-70
2021/07/14 01:43:15;;;;;;;13.87;11.20;;;;;;;20.41;93.12;100130.69;5074721;28;20185;-70
2021/07/14 01:45:41;;;;;;;13.30;9.93;;;;;;;20.63;91.20;100118.44;5074174;28;20277;-69
2021/07/14 01:48:09;;;;;;;14.03;10.37;;;;;;;20.77;90.29;100126.81;5073987;28;20201;-70
2021/07/14 01:50:34;;;;;;;14.60;10.97;;;;;;;20.88;89.07;100126.53;5074129;28;20202;-70
2021/07/14 01:53:00;;;;;;;12.23;11.03;;;;;;;20.98;88.70;100131.81;5073730;28;20229;-69
2021/07/14 01:55:27;;;;;;;13.07;11.10;;;;;;;20.96;89.13;100152.81;5073657;28;20167;-69
2021/07/14 01:57:53;;;;;;;13.43;10.90;;;;;;;20.86;90.41;100176.53;5073531;28;20654;-69
2021/07/14 02:00:19;;;;;;;15.50;10.83;;;;;;;20.73;91.76;100189.66;5073750;28;20658;-70
2021/07/14 02:03:01;;;;;;;12.23;10.93;;;;;;;20.61;93.08;100197.25;5074627;28;20237;-69
2021/07/14 02:05:26;;;;;;;15.03;11.77;;;;;;;20.49;93.69;100191.25;5074717;28;20270;-70
2021/07/14 02:07:51;;;;;;;12.80;11.37;;;;;;;20.54;94.18;100178.06;5073621;28;20193;-69
2021/07/14 02:10:17;;;;;;;13.67;11.33;;;;;;;20.52;94.38;100171.09;5073422;28;20190;-70
2021/07/14 02:12:46;;;;;;;13.30;11.37;;;;;;;20.55;93.41;100168.06;5073176;28;20639;-69
2021/07/14 02:15:11;;;;;;;16.80;11.40;;;;;;;20.62;92.98;100166.41;5073706;28;20654;-70
2021/07/14 02:17:42;;;;;;;14.53;11.13;;;;;;;20.63;92.86;100169.97;5073743;28;20175;-70
2021/07/14 02:20:18;;;;;;;12.47;10.50;;;;;;;20.65;92.66;100176.94;5073752;28;20195;-70
2021/07/14 02:22:44;;;;;;;17.53;11.60;;;;;;;20.64;93.51;100174.38;5073234;28;20521;-70
2021/07/14 02:25:11;;;;;;;12.40;11.07;;;;;;;20.65;92.89;100168.78;5073480;28;20563;-69
2021/07/14 02:27:36;;;;;;;13.43;10.30;;;;;;;20.64;93.08;100164.38;5073169;28;20585;-70
2021/07/14 02:30:22;;;;;;;14.33;10.33;;;;;;;20.66;92.97;100164.22;5073249;28;20232;-70
2021/07/14 02:32:50;;;;;;;13.10;10.47;;;;;;;20.59;93.24;100175.72;5073867;28;20285;-71
2021/07/14 02:35:17;;;;;;;11.83;10.63;;;;;;;20.47;95.47;100184.28;5073877;28;20627;-70
2021/07/14 02:38:07;;;;;;;14.90;11.47;;;;;;;20.55;94.09;100174.34;5074939;28;20573;-70
2021/07/14 02:40:33;;;;;;;14.90;10.63;;;;;;;20.49;94.37;100180.41;5073030;28;20191;-70
2021/07/14 02:43:00;;;;;;;16.93;10.73;;;;;;;20.45;95.07;100170.06;5072959;28;20592;-70
2021/07/14 02:45:27;;;;;;;12.53;10.97;;;;;;;20.37;95.86;100175.38;5057385;28;20210;-70
2021/07/14 02:47:52;;;;;;;14.33;11.23;;;;;;;20.37;95.67;100187.06;5073665;28;20186;-70
2021/07/14 02:50:20;;;;;;;16.37;12.00;;;;;;;20.36;95.52;100195.34;5072916;28;20238;-70
2021/07/14 02:52:48;;;;;;;13.63;11.87;;;;;;;20.39;95.22;100193.16;5072769;28;20206;-70
2021/07/14 02:55:17;;;;;;;13.57;11.17;;;;;;;20.49;94.76;100206.66;5056046;28;20228;-70
2021/07/14 02:57:43;;;;;;;12.73;11.03;;;;;;;20.48;94.77;100199.53;5072418;28;20189;-70
2021/07/14 03:00:09;;;;;;;13.03;11.63;;;;;;;20.43;95.13;100193.72;5073488;28;20194;-70
2021/07/14 03:02:36;;;;;;;13.53;11.47;;;;;;;20.41;95.80;100191.19;5073764;28;20654;-70
2021/07/14 03:05:01;;;;;;;13.27;11.97;;;;;;;20.37;96.06;100191.63;5072395;28;20202;-70
2021/07/14 03:07:27;;;;;;;15.83;12.33;;;;;;;20.18;97.67;100182.72;5055614;28;20171;-70
2021/07/14 03:09:53;;;;;;;13.67;11.33;;;;;;;20.15;97.81;100188.44;5055561;28;20175;-70
2021/07/14 03:12:20;;;;;;;19.83;12.40;;;;;;;20.19;97.41;100187.13;5073665;28;20167;-70
2021/07/14 03:14:48;;;;;;;13.40;11.63;;;;;;;20.08;98.26;100181.97;5073496;28;20173;-70
2021/07/14 03:17:15;;;;;;;16.33;11.90;;;;;;;20.00;98.86;100184.59;5073314;28;20618;-70
2021/07/14 03:19:41;;;;;;;16.73;13.30;;;;;;;20.01;98.59;100175.44;5073097;28;20178;-70
2021/07/14 03:22:07;;;;;;;15.90;13.80;;;;;;;20.05;97.95;100176.84;5072751;28;20558;-70
2021/07/14 03:24:36;;;;;;;18.53;13.07;;;;;;;20.06;98.03;100180.38;5074331;28;20199;-71
2021/07/14 03:27:03;;;;;;;14.37;12.73;;;;;;;20.05;98.08;100179.53;5074368;28;20178;-70
2021/07/14 03:29:29;;;;;;;22.80;14.00;;;;;;;20.02;98.45;100185.28;5073940;28;20177;-70
2021/07/14 03:31:55;;;;;;;15.70;12.17;;;;;;;20.04;98.08;100191.38;5072075;28;20202;-70
2021/07/14 03:34:20;;;;;;;13.97;12.47;;;;;;;20.03;98.69;100194.25;5073615;28;20543;-70
2021/07/14 03:36:48;;;;;;;15.60;12.23;;;;;;;20.01;98.74;100191.69;5072332;28;20174;-70
2021/07/14 03:39:13;;;;;;;19.03;12.73;;;;;;;20.05;98.35;100193.09;5072150;28;20174;-69
2021/07/14 03:41:39;;;;;;;16.20;12.27;;;;;;;20.16;97.67;100184.72;5071891;28;20190;-69
2021/07/14 03:44:05;;;;;;;17.50;13.57;;;;;;;20.27;96.32;100197.16;5071825;28;20547;-69
2021/07/14 03:46:31;;;;;;;14.50;13.00;;;;;;;20.35;95.52;100194.50;5071978;28;20221;-69
2021/07/14 03:48:56;;;;;;;15.53;13.80;;;;;;;20.34;95.26;100181.09;5055109;28;20175;-69
2021/07/14 03:51:23;;;;;;;14.07;12.07;;;;;;;20.38;94.97;100183.34;5103030;22;20237;-76
2021/07/14 03:53:50;;;;;;;19.57;12.47;;;;;;;20.51;93.47;100191.94;5075560;28;20205;-74
2021/07/14 03:56:15;;;;;;;13.83;12.27;;;;;;;20.51;93.36;100194.66;5075208;28;20209;-75
2021/07/14 03:58:43;;;;;;;14.73;13.23;;;;;;;20.44;93.81;100192.72;5075542;28;20209;-76
2021/07/14 04:01:11;;;;;;;19.30;13.47;;;;;;;20.46;93.97;100202.41;5075679;28;20201;-75
2021/07/14 04:03:37;;;;;;;15.43;12.93;;;;;;;20.40;94.66;100199.47;5075653;28;20174;-76
2021/07/14 04:06:03;;;;;;;20.83;13.07;;;;;;;20.52;93.56;100200.91;5075395;28;20205;-75
2021/07/14 04:08:37;;;;;;;16.00;13.00;;;;;;;20.61;93.04;100197.25;5075351;28;20170;-75
2021/07/14 04:11:04;;;;;;;13.63;12.27;;;;;;;20.62;92.58;100200.81;5075618;28;20198;-74
2021/07/14 04:13:30;;;;;;;18.63;12.57;;;;;;;20.68;91.03;100195.56;5092363;28;20194;-76
2021/07/14 04:15:55;;;;;;;17.10;12.40;;;;;;;20.78;89.48;100188.16;5075276;28;20631;-73
2021/07/14 04:18:20;;;;;;;13.90;12.50;;;;;;;20.82;89.15;100188.72;5075262;28;20178;-73
2021/07/14 04:20:46;;;;;;;13.83;12.17;;;;;;;20.96;88.50;100198.09;5074997;28;20204;-73
2021/07/14 04:23:11;;;;;;;14.13;11.97;;;;;;;21.02;87.79;100195.56;5093218;28;20546;-73
2021/07/14 04:25:36;;;;;;;15.93;12.30;;;;;;;21.05;87.20;100192.53;5074987;28;20206;-74
2021/07/14 04:28:02;;;;;;;15.53;13.10;;;;;;;21.08;86.84;100188.63;5075242;28;20527;-74
2021/07/14 04:30:27;;;;;;;13.40;11.87;;;;;;;21.21;85.30;100179.03;5091745;28;20282;-74
2021/07/14 04:32:52;;;;;;;21.37;13.80;;;;;;;21.21;84.69;100180.91;5079062;28;20174;-75
2021/07/14 04:35:18;;;;;;;15.10;13.43;;;;;;;21.24;84.89;100179.75;5106749;28;20178;-74
2021/07/14 04:37:47;;;;;;;15.67;13.10;;;;;;;21.28;83.95;100181.97;5107073;28;20200;-72
2021/07/14 04:40:12;;;;;;;16.23;13.33;;;;;;;21.30;84.81;100185.34;5111831;28;20177;-77
2021/07/14 04:42:37;;;;;;;14.90;13.40;;;;;;;21.35;84.33;100183.00;5094098;28;20182;-75
2021/07/14 04:45:03;;;;;;;18.77;13.33;;;;;;;21.43;83.78;100188.44;5079597;28;20209;-73
2021/07/14 04:47:28;;;;;;;14.20;12.47;;;;;;;21.52;84.91;100198.28;5078585;28;20174;-74
2021/07/14 04:49:53;;;;;;;17.80;13.47;;;;;;;21.58;84.15;100187.78;5095521;28;20181;-74
2021/07/14 04:52:19;;;;;;;14.07;12.03;;;;;;;21.66;84.32;100179.66;5095700;28;20198;-73
2021/07/14 04:54:44;;;;;;;14.27;12.60;;;;;;;21.79;83.46;100182.72;5078700;28;20181;-74
2021/07/14 04:57:09;;;;;;;12.77;11.40;;;;;;;21.91;83.42;100181.34;5078725;28;20231;-74
2021/07/14 04:59:35;;;;;;;14.93;12.93;;;;;;;21.92;83.22;100169.47;5078517;28;20538;-73
2021/07/14 05:02:04;;;;;;;14.20;12.70;;;;;;;22.01;82.71;100170.31;5078347;28;20198;-74
2021/07/14 05:04:31;;;;;;;15.30;11.43;;;;;;;22.04;81.45;100162.72;5095431;28;20209;-75
2021/07/14 05:06:56;;;;;;;13.47;11.87;;;;;;;22.01;81.32;100163.03;5095344;28;20253;-74
2021/07/14 05:09:22;;;;;;;15.37;12.47;;;;;;;21.90;nan;100159.78;5095305;28;20525;-74
2021/07/14 05:11:47;;;;;;;14.47;12.37;;;;;;;21.88;82.60;100162.66;5095429;28;20202;-74
2021/07/14 05:14:12;;;;;;;16.37;12.40;;;;;;;21.97;81.47;100156.25;5095393;28;20674;-74
2021/07/14 05:16:38;;;;;;;14.77;12.33;;;;;;;21.93;82.04;100159.44;5095613;28;20600;-74
2021/07/14 05:19:04;;;;;;;14.10;12.20;;;;;;;21.90;82.99;100159.78;5095132;28;20188;-76
2021/07/14 05:21:29;;;;;;;16.37;11.43;;;;;;;21.99;81.49;100165.06;5078537;28;20194;-76
2021/07/14 05:23:55;;;;;;;14.53;12.30;;;;;;;22.00;81.68;100161.31;5096706;28;20177;-75
2021/07/14 05:26:20;;;;;;;13.60;11.83;;;;;;;22.05;81.51;100160.84;5097704;28;20208;-76
2021/07/14 05:28:46;;;;;;;12.33;11.10;;;;;;;22.20;80.26;100166.41;5080445;28;20223;-76
2021/07/14 05:31:11;;;;;;;14.83;11.40;;;;;;;22.39;79.43;100164.19;5081142;28;20193;-74
2021/07/14 05:33:37;;;;;;;13.17;11.57;;;;;;;22.40;79.66;100168.59;5081041;28;20186;-75
2021/07/14 05:36:02;;;;;;;15.27;11.67;;;;;;;22.44;79.78;100169.09;5097691;28;20247;-75
2021/07/14 05:38:28;;;;;;;16.97;12.03;;;;;;;22.35;80.63;100164.72;5097207;28;20178;-76
2021/07/14 05:40:54;;;;;;;13.60;11.60;;;;;;;22.49;79.53;100154.97;5098183;28;20198;-76
2021/07/14 05:43:19;;;;;;;15.53;11.47;;;;;;;22.58;79.33;100157.50;5085058;28;20299;-76
2021/07/14 05:45:45;;;;;;;12.43;10.60;;;;;;;22.70;79.32;100153.41;5104129;28;20205;-77
2021/07/14 05:48:10;;;;;;;13.67;12.27;;;;;;;22.74;78.84;100162.06;5109702;28;20224;-76
2021/07/14 05:50:37;;;;;;;13.30;11.27;;;;;;;22.83;78.86;100162.88;5080240;28;20213;-70
2021/07/14 05:53:03;;;;;;;12.57;11.30;;;;;;;23.07;77.58;100171.81;5077378;28;20166;-69
2021/07/14 05:55:28;;;;;;;14.17;12.30;;;;;;;23.35;75.97;100165.84;5094361;28;20178;-69
2021/07/14 05:57:54;;;;;;;12.80;11.13;;;;;;;23.38;75.73;100169.06;5095248;28;20649;-74
2021/07/14 06:00:19;;;;;;;16.10;11.53;;;;;;;23.64;74.92;100173.34;5097644;28;20253;-76
2021/07/14 06:02:45;;;;;;;21.73;11.23;;;;;;;23.93;73.86;100178.06;5098395;28;20635;-75
2021/07/14 06:05:11;;;;;;;11.37;10.17;;;;;;;24.31;72.85;100181.66;5098936;28;20197;-76
2021/07/14 06:07:37;;;;;;;14.03;10.83;;;;;;;24.44;72.91;100181.03;5100112;28;20162;-75
2021/07/14 06:10:04;;;;;;;25.83;10.63;;;;;;;24.92;70.60;100175.03;5081679;28;20178;-75
2021/07/14 06:12:29;;;;;;;19.80;11.10;;;;;;;24.93;70.47;100173.13;5080567;28;20543;-74
2021/07/14 06:14:54;;;;;;;11.93;10.27;;;;;;;25.12;70.27;100175.28;5081036;28;20253;-75
2021/07/14 06:17:19;;;;;;;12.33;10.77;;;;;;;24.84;70.86;100177.84;5079653;28;20174;-75
2021/07/14 06:19:45;;;;;;;11.97;10.10;;;;;;;24.89;70.27;100177.25;5099762;28;20223;-76
2021/07/14 06:22:12;;;;;;;13.30;10.57;;;;;;;24.74;70.70;100173.69;5097418;28;20191;-74
2021/07/14 06:24:38;;;;;;;16.47;10.40;;;;;;;24.59;69.98;100169.09;5081682;28;20202;-75
2021/07/14 06:27:03;;;;;;;16.50;9.97;;;;;;;24.30;72.00;100163.63;5079842;28;20232;-76
2021/07/14 06:29:29;;;;;;;12.57;10.70;;;;;;;24.20;71.77;100173.91;5079695;28;20182;-74
2021/07/14 06:31:54;;;;;;;13.00;10.47;;;;;;;24.79;69.54;100172.09;5098868;28;20650;-74
2021/07/14 06:34:19;;;;;;;14.63;10.80;;;;;;;24.69;68.77;100166.09;5097174;28;20178;-76
2021/07/14 06:36:44;;;;;;;15.20;10.00;;;;;;;24.54;68.62;100170.72;5079456;28;20263;-74
2021/07/14 06:39:10;;;;;;;12.90;10.37;;;;;;;24.77;68.13;100178.78;5079394;28;20238;-74
2021/07/14 06:41:36;;;;;;;17.67;11.03;;;;;;;24.68;68.56;100191.69;5079778;28;20222;-75
2021/07/14 06:44:02;;;;;;;12.03;10.83;;;;;;;24.61;67.68;100198.94;5079415;28;20201;-75
2021/07/14 06:46:28;;;;;;;12.77;10.60;;;;;;;24.81;67.29;100188.28;5079077;28;20243;-75
2021/07/14 06:48:54;;;;;;;11.07;9.97;;;;;;;24.97;67.51;100173.59;5096975;28;20212;-74
2021/07/14 06:51:19;;;;;;;10.40;9.37;;;;;;;25.02;66.66;100169.28;5080121;28;20218;-75
2021/07/14 06:53:44;;;;;;;12.50;10.73;;;;;;;25.72;64.01;100168.66;5096168;28;20184;-75
2021/07/14 06:56:10;;;;;;;11.47;10.00;;;;;;;25.56;65.18;100160.66;5095620;28;20180;-75
2021/07/14 06:58:36;;;;;;;11.13;9.97;;;;;;;26.04;63.37;100166.44;5079585;28;20178;-76
2021/07/14 07:01:03;;;;;;;15.33;11.20;;;;;;;25.97;63.76;100170.97;5079008;28;20619;-76
2021/07/14 07:03:29;;;;;;;12.73;10.40;;;;;;;26.00;62.62;100168.69;5094126;28;20178;-76
2021/07/14 07:05:54;;;;;;;12.07;10.47;;;;;;;25.92;63.96;100163.34;5094455;28;20692;-75
2021/07/14 07:08:19;;;;;;;11.13;9.73;;;;;;;26.08;63.83;100160.38;5095102;28;20166;-75
2021/07/14 07:10:46;;;;;;;11.57;10.10;;;;;;;26.06;63.96;100156.97;5095624;28;20217;-76
2021/07/14 07:13:15;;;;;;;11.13;9.70;;;;;;;25.97;63.25;100157.28;5096100;28;20170;-77
2021/07/14 07:15:40;;;;;;;11.20;10.10;;;;;;;25.84;63.25;100164.34;5096491;28;20173;-76
2021/07/14 07:18:06;;;;;;;11.47;10.20;;;;;;;25.91;62.74;100158.09;5096334;28;20178;-76
2021/07/14 07:20:31;;;;;;;10.67;9.33;;;;;;;26.32;61.31;100172.72;5105055;28;20202;-76
2021/07/14 07:22:56;;;;;;;10.87;9.80;;;;;;;26.46;60.15;100182.78;5109873;28;20182;-75
2021/07/14 07:25:22;;;;;;;11.00;10.00;;;;;;;26.57;60.94;100177.78;5092323;28;20227;-77
2021/07/14 07:27:48;;;;;;;18.30;9.90;;;;;;;26.22;60.81;100193.28;5092874;28;20162;-76
2021/07/14 07:30:14;;;;;;;14.20;9.90;;;;;;;26.25;59.52;100191.00;5094341;28;20654;-76
2021/07/14 07:32:39;;;;;;;11.23;10.03;;;;;;;26.11;61.52;100183.72;5095017;28;20179;-74
2021/07/14 07:35:05;;;;;;;15.33;10.03;;;;;;;26.39;60.14;100181.88;5077245;28;20169;-75
2021/07/14 07:37:31;;;;;;;11.47;10.27;;;;;;;25.73;61.66;100178.53;5077732;28;20279;-75
2021/07/14 07:39:57;;;;;;;10.83;9.80;;;;;;;25.84;62.40;100186.22;5094280;28;20217;-74
2021/07/14 07:42:22;;;;;;;14.73;10.03;;;;;;;25.96;62.43;100182.94;5094092;28;20558;-75
2021/07/14 07:44:48;;;;;;;11.97;10.60;;;;;;;25.53;62.59;100185.66;5094593;28;20199;-75
2021/07/14 07:47:14;;;;;;;11.17;10.07;;;;;;;25.31;64.34;100195.72;5077203;28;20182;-75
2021/07/14 07:49:43;;;;;;;11.63;10.43;;;;;;;24.85;65.94;100193.16;5098730;28;20170;-76
2021/07/14 07:52:09;;;;;;;15.37;10.80;;;;;;;24.84;65.74;100186.03;5101632;28;20255;-73
2021/07/14 07:54:34;;;;;;;14.43;10.43;;;;;;;24.98;65.59;100184.38;5096749;28;20166;-76
2021/07/14 07:56:59;;;;;;;11.80;10.00;;;;;;;25.26;64.25;100187.22;5095553;28;20174;-75
2021/07/14 07:59:24;;;;;;;14.70;10.90;;;;;;;25.07;64.44;100185.09;5078863;28;20198;-75
2021/07/14 08:01:50;;;;;;;11.93;10.07;;;;;;;25.27;64.39;100177.97;5077904;28;20559;-75
2021/07/14 08:04:17;;;;;;;12.77;10.53;;;;;;;25.16;65.35;100179.34;5094720;28;20193;-75
2021/07/14 08:06:42;;;;;;;12.57;11.23;;;;;;;25.12;65.56;100185.38;5080006;28;20647;-76
2021/07/14 08:09:07;;;;;;;11.60;10.33;;;;;;;24.87;66.94;100198.44;5099643;28;20177;-75
2021/07/14 08:11:33;;;;;;;15.70;11.07;;;;;;;24.51;68.49;100204.63;5098936;28;20209;-75
2021/07/14 08:13:59;;;;;;;16.00;12.70;;;;;;;24.13;71.04;100209.22;5081985;28;20192;-75
2021/07/14 08:16:25;;;;;;;13.13;11.03;;;;;;;24.18;71.80;100216.88;5083122;28;20171;-74
2021/07/14 08:18:51;;;;;;;13.07;10.63;;;;;;;24.06;73.55;100218.31;5098491;28;20171;-75
2021/07/14 08:21:16;;;;;;;16.90;12.70;;;;;;;23.76;75.78;100212.75;5101040;28;20564;-76
2021/07/14 08:23:41;;;;;;;21.90;12.87;;;;;;;23.32;80.46;100228.81;5101753;28;20186;-76
2021/07/14 08:26:07;;;;;;;22.17;14.83;;;;;;;22.59;86.80;100237.22;5084908;28;20198;-75
2021/07/14 08:28:33;;;;;;;20.50;15.73;;;;;;;21.70;95.09;100262.47;5081651;28;20178;-75
2021/07/14 08:30:58;;;;;;;24.67;17.60;;;;;;;21.41;99.59;100271.91;5081625;28;20197;-73
2021/07/14 08:33:23;;;;;;;22.33;17.70;;;;;;;21.18;100.00;100279.72;5082191;28;20182;-74
2021/07/14 08:35:49;;;;;;;29.40;19.80;;;;;;;21.01;100.00;100264.41;5099876;28;20182;-74
2021/07/14 08:38:14;;;;;;;29.63;21.20;;;;;;;20.88;100.00;100251.28;5100192;28;20577;-74
2021/07/14 08:40:48;;;;;;;26.57;22.03;;;;;;;20.66;100.00;100259.97;5101181;28;20250;-74
2021/07/14 08:43:15;;;;;;;28.57;22.00;;;;;;;20.51;100.00;100275.13;5096604;28;20162;-75
2021/07/14 08:45:40;;;;;;;31.80;24.10;;;;;;;20.26;100.00;100299.28;5096622;28;20194;-76
2021/07/14 08:48:06;;;;;;;34.07;23.50;;;;;;;19.94;100.00;100256.50;5079198;28;20515;-74
2021/07/14 08:50:32;;;;;;;62.33;15.07;;;;;;;19.53;100.00;100171.31;5095307;28;20627;-74
2021/07/14 08:52:58;;;;;;;12.70;9.50;;;;;;;19.45;100.00;100152.28;5095565;28;20167;-74
2021/07/14 08:55:24;;;;;;;11.20;7.93;;;;;;;19.70;100.00;100190.41;5078959;28;20205;-73
2021/07/14 08:57:50;;;;;;;13.30;8.23;;;;;;;19.58;100.00;100209.59;5095683;28;20202;-74
2021/07/14 09:00:20;;;;;;;17.07;9.93;;;;;;;19.60;100.00;100215.72;5079575;28;20174;-74
2021/07/14 09:02:45;;;;;;;15.63;9.27;;;;;;;19.78;100.00;100231.97;5079386;28;20236;-75
2021/07/14 09:05:11;;;;;;;15.63;8.90;;;;;;;19.85;100.00;100240.31;5095830;28;20190;-74
2021/07/14 09:07:37;;;;;;;18.20;10.30;;;;;;;19.91;100.00;100234.28;5078253;28;20707;-75
2021/07/14 09:10:05;;;;;;;15.90;11.37;;;;;;;20.34;100.00;100232.59;5079504;28;20178;-76
2021/07/14 09:12:35;;;;;;;11.53;9.00;;;;;;;20.68;100.00;100230.81;5096736;28;20193;-77
2021/07/14 09:15:08;;;;;;;11.93;9.00;;;;;;;20.74;100.00;100222.03;5101020;28;20210;-77
2021/07/14 09:17:33;;;;;;;11.80;9.50;;;;;;;20.62;100.00;100225.19;5100047;28;20591;-77
2021/07/14 09:20:14;;;;;;;13.40;9.30;;;;;;;20.51;100.00;100231.75;5080068;28;20178;-77
2021/07/14 09:22:40;;;;;;;12.80;10.27;;;;;;;20.43;100.00;100235.22;5099908;28;20211;-77
2021/07/14 09:25:14;;;;;;;14.23;11.33;;;;;;;20.30;100.00;100238.34;5094665;28;20208;-77
2021/07/14 09:27:52;;;;;;;22.07;13.73;;;;;;;20.13;100.00;100255.47;5104298;28;20157;-77
2021/07/14 09:30:18;;;;;;;17.87;13.43;;;;;;;20.15;100.00;100258.88;5107080;28;20167;-77
2021/07/14 09:32:49;;;;;;;20.40;14.23;;;;;;;20.16;100.00;100254.31;5098833;28;20174;-77
2021/07/14 09:35:38;;;;;;;17.03;13.73;;;;;;;20.20;100.00;100240.28;5096522;28;20286;-77
2021/07/14 09:38:12;;;;;;;15.70;13.47;;;;;;;20.38;100.00;100250.25;5113812;28;20173;-78
2021/07/14 09:40:39;;;;;;;20.37;14.97;;;;;;;20.58;100.00;100259.91;5114394;28;20186;-77
2021/07/14 09:43:08;;;;;;;18.03;14.30;;;;;;;20.56;100.00;100281.75;5089596;28;20175;-72
2021/07/14 09:45:37;;;;;;;17.00;13.60;;;;;;;20.54;100.00;100291.91;5104670;28;20197;-73
2021/07/14 09:48:07;;;;;;;26.43;14.67;;;;;;;20.47;100.00;100284.59;5106695;28;20170;-73
2021/07/14 09:53:10;;;;;;;18.03;13.60;;;;;;;20.88;100.00;100288.41;5096129;22;20238;-70
2021/07/14 09:55:36;;;;;;;21.10;12.93;;;;;;;21.08;100.00;100265.44;5073694;28;20171;-70
2021/07/14 09:58:12;;;;;;;14.47;12.23;;;;;;;21.55;100.00;100259.53;5073659;28;20175;-69
2021/07/14 10:00:39;;;;;;;18.77;13.23;;;;;;;21.63;100.00;100267.72;5074757;28;20178;-70
2021/07/14 10:03:04;;;;;;;17.00;13.33;;;;;;;21.54;100.00;100274.97;5073263;28;20234;-70
2021/07/14 10:05:30;;;;;;;15.93;13.00;;;;;;;21.55;100.00;100278.53;5073444;28;20241;-70
2021/07/14 10:08:15;;;;;;;16.43;12.90;;;;;;;21.71;100.00;100275.91;5073808;28;20183;-69
2021/07/14 10:10:40;;;;;;;18.63;12.60;;;;;;;21.94;100.00;100276.13;5074421;28;20174;-71
2021/07/14 10:13:07;;;;;;;18.27;13.00;;;;;;;22.11;100.00;100275.13;5074674;28;20194;-70
2021/07/14 10:15:33;;;;;;;17.00;12.77;;;;;;;22.11;100.00;100277.84;5074656;28;20183;-70
2021/07/14 10:17:58;;;;;;;20.33;13.97;;;;;;;22.33;100.00;100259.19;5073194;28;20206;-70
2021/07/14 10:20:25;;;;;;;19.33;14.60;;;;;;;22.29;100.00;100258.66;5074514;28;20630;-69
2021/07/14 10:22:58;;;;;;;17.20;13.73;;;;;;;22.36;100.00;100261.56;5073286;28;20663;-71
2021/07/14 10:25:24;;;;;;;18.33;14.20;;;;;;;21.57;100.00;100257.53;5073115;28;20186;-72
2021/07/14 10:27:51;;;;;;;17.83;15.23;;;;;;;21.81;100.00;100257.56;5073432;28;20182;-73
2021/07/14 10:30:17;;;;;;;24.00;15.37;;;;;;;21.50;100.00;100259.19;5074414;28;20190;-72
2021/07/14 10:32:44;;;;;;;24.13;16.43;;;;;;;21.25;100.00;100280.00;5074003;28;20222;-71
2021/07/14 10:35:15;;;;;;;20.13;15.83;;;;;;;21.32;100.00;100285.59;5072928;28;20182;-71
2021/07/14 10:37:42;;;;;;;21.30;14.73;;;;;;;20.96;100.00;100307.44;5072999;28;20185;-72
2021/07/14 10:40:09;;;;;;;19.77;12.27;;;;;;;20.89;100.00;100303.69;5073828;28;20193;-71
2021/07/14 10:42:35;;;;;;;18.80;12.20;;;;;;;21.15;100.00;100304.47;5072684;28;20252;-71
2021/07/14 10:45:02;;;;;;;18.53;12.40;;;;;;;21.15;100.00;100288.19;5056242;28;20690;-70
2021/07/14 10:47:28;;;;;;;19.40;12.37;;;;;;;21.88;100.00;100287.63;5072552;28;20185;-69
2021/07/14 10:49:54;;;;;;;22.70;14.53;;;;;;;22.36;100.00;100356.72;5073040;28;20174;-69
2021/07/14 10:52:20;;;;;;;16.70;11.20;;;;;;;23.06;100.00;100297.19;5072669;28;20578;-70
2021/07/14 10:54:45;;;;;;;14.20;10.53;;;;;;;23.04;97.38;100302.78;5072529;28;20171;-69
2021/07/14 10:57:10;;;;;;;20.00;10.77;;;;;;;23.31;96.19;100369.56;5073641;28;20178;-71
2021/07/14 10:59:36;;;;;;;15.77;9.03;;;;;;;23.04;97.94;100264.69;5072560;28;20197;-70
2021/07/14 11:02:02;;;;;;;13.87;7.60;;;;;;;23.10;94.03;100252.25;5055651;28;20285;-69
2021/07/14 11:04:27;;;;;;;13.47;7.13;;;;;;;23.62;91.18;100254.41;5072362;28;20170;-70
2021/07/14 11:06:58;;;;;;;12.40;7.50;;;;;;;23.71;95.43;100253.31;5074283;28;20179;-69
2021/07/14 11:09:40;;;;;;;11.03;5.80;;;;;;;24.17;83.66;100262.38;5073706;28;20170;-67
2021/07/14 11:12:07;;;;;;;8.60;5.97;;;;;;;25.84;71.97;100268.22;5072231;28;20285;-70
2021/07/14 11:14:46;;;;;;;11.13;6.07;;;;;;;26.75;69.97;100329.50;5073385;28;20178;-70
2021/07/14 11:17:12;;;;;;;11.07;6.23;;;;;;;26.86;67.67;100313.59;5072633;28;20178;-70
2021/07/14 11:19:46;;;;;;;8.77;5.93;;;;;;;27.70;67.35;100322.56;5072733;28;20183;-70